sensor_id;sensor_type;location;lat;lon;timestamp;P1;durP1;ratioP1;P2;durP2;ratioP2
45388;SDS011;31127;52.078;4.370;2023-09-18T00:00:44;46.90;;;35.17;;
45388;SDS011;31127;52.078;4.370;2023-09-18T00:05:40;48.58;;;34.47;;
45388;SDS011;31127;52.078;4.370;2023-09-18T00:10:35;45.67;;;34.35;;
45388;SDS011;31127;52.078;4.370;2023-09-18T00:15:31;50.80;;;36.05;;
45388;SDS011;31127;52.078;4.370;2023-09-18T00:20:27;47.13;;;32.60;;
45388;SDS011;31127;52.078;4.370;2023-09-18T00:25:23;43.30;;;33.28;;
45388;SDS011;31127;52.078;4.370;2023-09-18T00:30:18;38.53;;;31.10;;
45388;SDS011;31127;52.078;4.370;2023-09-18T00:35:14;43.10;;;32.53;;
45388;SDS011;31127;52.078;4.370;2023-09-18T00:40:10;38.85;;;31.70;;
45388;SDS011;31127;52.078;4.370;2023-09-18T00:45:06;44.45;;;34.22;;
45388;SDS011;31127;52.078;4.370;2023-09-18T00:50:22;38.45;;;31.92;;
45388;SDS011;31127;52.078;4.370;2023-09-18T00:55:17;39.80;;;31.00;;
45388;SDS011;31127;52.078;4.370;2023-09-18T01:00:13;38.38;;;30.00;;
45388;SDS011;31127;52.078;4.370;2023-09-18T01:05:12;40.03;;;32.05;;
45388;SDS011;31127;52.078;4.370;2023-09-18T01:10:09;41.47;;;32.50;;
45388;SDS011;31127;52.078;4.370;2023-09-18T01:20:04;41.50;;;35.22;;
45388;SDS011;31127;52.078;4.370;2023-09-18T01:25:00;39.40;;;31.92;;
45388;SDS011;31127;52.078;4.370;2023-09-18T01:29:56;41.22;;;33.22;;
45388;SDS011;31127;52.078;4.370;2023-09-18T01:35:12;40.25;;;32.22;;
45388;SDS011;31127;52.078;4.370;2023-09-18T01:40:09;39.45;;;32.00;;
45388;SDS011;31127;52.078;4.370;2023-09-18T01:45:06;42.03;;;33.40;;
45388;SDS011;31127;52.078;4.370;2023-09-18T01:50:04;44.45;;;33.58;;
45388;SDS011;31127;52.078;4.370;2023-09-18T01:55:02;45.03;;;36.00;;
45388;SDS011;31127;52.078;4.370;2023-09-18T02:00:18;41.22;;;33.75;;
45388;SDS011;31127;52.078;4.370;2023-09-18T02:05:14;41.72;;;33.55;;
45388;SDS011;31127;52.078;4.370;2023-09-18T02:10:09;42.55;;;32.67;;
45388;SDS011;31127;52.078;4.370;2023-09-18T02:15:07;39.42;;;31.30;;
45388;SDS011;31127;52.078;4.370;2023-09-18T02:20:05;38.97;;;30.05;;
45388;SDS011;31127;52.078;4.370;2023-09-18T02:25:21;32.00;;;28.05;;
45388;SDS011;31127;52.078;4.370;2023-09-18T02:30:16;33.22;;;26.70;;
45388;SDS011;31127;52.078;4.370;2023-09-18T02:35:14;35.20;;;28.27;;
45388;SDS011;31127;52.078;4.370;2023-09-18T02:40:10;34.95;;;28.00;;
45388;SDS011;31127;52.078;4.370;2023-09-18T02:45:05;40.78;;;31.90;;
45388;SDS011;31127;52.078;4.370;2023-09-18T02:50:01;39.05;;;29.30;;
45388;SDS011;31127;52.078;4.370;2023-09-18T02:54:57;37.00;;;30.35;;
45388;SDS011;31127;52.078;4.370;2023-09-18T03:00:12;39.60;;;28.67;;
45388;SDS011;31127;52.078;4.370;2023-09-18T03:05:31;37.13;;;27.70;;
45388;SDS011;31127;52.078;4.370;2023-09-18T03:10:26;40.17;;;28.48;;
45388;SDS011;31127;52.078;4.370;2023-09-18T03:15:44;42.25;;;31.83;;
45388;SDS011;31127;52.078;4.370;2023-09-18T03:21:00;40.00;;;31.75;;
45388;SDS011;31127;52.078;4.370;2023-09-18T03:26:16;47.13;;;31.23;;
45388;SDS011;31127;52.078;4.370;2023-09-18T03:31:33;40.50;;;28.90;;
45388;SDS011;31127;52.078;4.370;2023-09-18T03:36:49;44.83;;;26.25;;
45388;SDS011;31127;52.078;4.370;2023-09-18T03:41:45;38.75;;;24.92;;
45388;SDS011;31127;52.078;4.370;2023-09-18T03:46:41;34.60;;;25.48;;
45388;SDS011;31127;52.078;4.370;2023-09-18T03:51:36;36.95;;;23.25;;
45388;SDS011;31127;52.078;4.370;2023-09-18T03:56:32;36.75;;;25.30;;
45388;SDS011;31127;52.078;4.370;2023-09-18T04:01:28;41.08;;;26.92;;
45388;SDS011;31127;52.078;4.370;2023-09-18T04:06:23;42.35;;;21.70;;
45388;SDS011;31127;52.078;4.370;2023-09-18T04:11:22;24.20;;;15.95;;
45388;SDS011;31127;52.078;4.370;2023-09-18T04:16:21;25.83;;;17.65;;
45388;SDS011;31127;52.078;4.370;2023-09-18T04:21:16;25.23;;;17.88;;
45388;SDS011;31127;52.078;4.370;2023-09-18T04:26:12;25.98;;;16.77;;
45388;SDS011;31127;52.078;4.370;2023-09-18T04:31:09;26.38;;;16.83;;
45388;SDS011;31127;52.078;4.370;2023-09-18T04:36:05;28.08;;;17.42;;
45388;SDS011;31127;52.078;4.370;2023-09-18T04:41:01;30.38;;;19.58;;
45388;SDS011;31127;52.078;4.370;2023-09-18T04:45:57;30.38;;;18.05;;
45388;SDS011;31127;52.078;4.370;2023-09-18T04:50:53;30.75;;;19.08;;
45388;SDS011;31127;52.078;4.370;2023-09-18T04:56:09;26.95;;;18.55;;
45388;SDS011;31127;52.078;4.370;2023-09-18T05:01:27;29.23;;;19.90;;
45388;SDS011;31127;52.078;4.370;2023-09-18T05:06:43;40.55;;;21.73;;
45388;SDS011;31127;52.078;4.370;2023-09-18T05:11:59;35.15;;;22.55;;
45388;SDS011;31127;52.078;4.370;2023-09-18T05:17:15;33.40;;;22.40;;
45388;SDS011;31127;52.078;4.370;2023-09-18T05:22:11;31.50;;;21.48;;
45388;SDS011;31127;52.078;4.370;2023-09-18T05:27:06;31.88;;;21.02;;
45388;SDS011;31127;52.078;4.370;2023-09-18T05:32:02;30.63;;;21.05;;
45388;SDS011;31127;52.078;4.370;2023-09-18T05:36:59;28.80;;;21.00;;
45388;SDS011;31127;52.078;4.370;2023-09-18T05:41:54;33.65;;;21.58;;
45388;SDS011;31127;52.078;4.370;2023-09-18T05:46:49;27.03;;;20.13;;
45388;SDS011;31127;52.078;4.370;2023-09-18T05:51:45;35.38;;;21.42;;
45388;SDS011;31127;52.078;4.370;2023-09-18T05:56:42;27.42;;;21.00;;
45388;SDS011;31127;52.078;4.370;2023-09-18T06:01:38;32.20;;;19.92;;
45388;SDS011;31127;52.078;4.370;2023-09-18T06:06:33;31.20;;;21.77;;
45388;SDS011;31127;52.078;4.370;2023-09-18T06:11:29;36.40;;;22.25;;
45388;SDS011;31127;52.078;4.370;2023-09-18T06:16:45;34.65;;;23.20;;
45388;SDS011;31127;52.078;4.370;2023-09-18T06:21:41;33.72;;;21.13;;
45388;SDS011;31127;52.078;4.370;2023-09-18T06:26:36;35.00;;;23.52;;
45388;SDS011;31127;52.078;4.370;2023-09-18T06:31:52;37.13;;;24.63;;
45388;SDS011;31127;52.078;4.370;2023-09-18T06:36:50;38.28;;;24.20;;
45388;SDS011;31127;52.078;4.370;2023-09-18T06:41:46;38.22;;;24.10;;
45388;SDS011;31127;52.078;4.370;2023-09-18T06:46:42;34.38;;;23.95;;
45388;SDS011;31127;52.078;4.370;2023-09-18T06:51:37;30.98;;;20.73;;
45388;SDS011;31127;52.078;4.370;2023-09-18T06:56:33;25.77;;;19.45;;
45388;SDS011;31127;52.078;4.370;2023-09-18T07:01:28;23.25;;;15.82;;
45388;SDS011;31127;52.078;4.370;2023-09-18T07:06:27;19.25;;;13.77;;
45388;SDS011;31127;52.078;4.370;2023-09-18T07:11:23;16.40;;;12.15;;
45388;SDS011;31127;52.078;4.370;2023-09-18T07:16:19;12.73;;;9.75;;
45388;SDS011;31127;52.078;4.370;2023-09-18T07:21:14;10.90;;;8.45;;
45388;SDS011;31127;52.078;4.370;2023-09-18T07:26:10;9.98;;;7.15;;
45388;SDS011;31127;52.078;4.370;2023-09-18T07:31:06;9.75;;;6.78;;
45388;SDS011;31127;52.078;4.370;2023-09-18T07:36:02;10.32;;;7.10;;
45388;SDS011;31127;52.078;4.370;2023-09-18T07:40:58;8.30;;;6.38;;
45388;SDS011;31127;52.078;4.370;2023-09-18T07:45:54;9.73;;;5.35;;
45388;SDS011;31127;52.078;4.370;2023-09-18T07:50:50;15.18;;;6.53;;
45388;SDS011;31127;52.078;4.370;2023-09-18T07:55:45;5.82;;;4.63;;
45388;SDS011;31127;52.078;4.370;2023-09-18T08:00:41;6.47;;;4.27;;
45388;SDS011;31127;52.078;4.370;2023-09-18T08:05:56;10.95;;;4.30;;
45388;SDS011;31127;52.078;4.370;2023-09-18T08:10:52;8.77;;;4.38;;
45388;SDS011;31127;52.078;4.370;2023-09-18T08:15:48;6.88;;;3.80;;
45388;SDS011;31127;52.078;4.370;2023-09-18T08:20:44;10.70;;;5.05;;
45388;SDS011;31127;52.078;4.370;2023-09-18T08:25:39;39.53;;;28.95;;
45388;SDS011;31127;52.078;4.370;2023-09-18T08:30:36;8.43;;;3.80;;
45388;SDS011;31127;52.078;4.370;2023-09-18T08:35:32;7.25;;;3.60;;
45388;SDS011;31127;52.078;4.370;2023-09-18T08:40:27;7.30;;;3.45;;
45388;SDS011;31127;52.078;4.370;2023-09-18T08:45:26;6.47;;;4.18;;
45388;SDS011;31127;52.078;4.370;2023-09-18T08:50:25;8.60;;;3.70;;
45388;SDS011;31127;52.078;4.370;2023-09-18T08:55:24;5.90;;;3.57;;
45388;SDS011;31127;52.078;4.370;2023-09-18T09:00:19;6.45;;;3.42;;
45388;SDS011;31127;52.078;4.370;2023-09-18T09:05:16;5.78;;;3.15;;
45388;SDS011;31127;52.078;4.370;2023-09-18T09:10:11;5.05;;;3.80;;
45388;SDS011;31127;52.078;4.370;2023-09-18T09:15:07;6.25;;;3.75;;
45388;SDS011;31127;52.078;4.370;2023-09-18T09:20:09;7.35;;;4.13;;
45388;SDS011;31127;52.078;4.370;2023-09-18T09:30:19;5.25;;;3.00;;
45388;SDS011;31127;52.078;4.370;2023-09-18T09:35:19;4.28;;;3.00;;
45388;SDS011;31127;52.078;4.370;2023-09-18T09:40:15;6.70;;;3.38;;
45388;SDS011;31127;52.078;4.370;2023-09-18T09:45:11;4.95;;;2.72;;
45388;SDS011;31127;52.078;4.370;2023-09-18T09:50:08;7.78;;;5.55;;
45388;SDS011;31127;52.078;4.370;2023-09-18T09:55:28;5.28;;;2.50;;
45388;SDS011;31127;52.078;4.370;2023-09-18T10:00:24;6.32;;;3.10;;
45388;SDS011;31127;52.078;4.370;2023-09-18T10:05:22;5.05;;;3.60;;
45388;SDS011;31127;52.078;4.370;2023-09-18T10:10:19;6.82;;;3.38;;
45388;SDS011;31127;52.078;4.370;2023-09-18T10:15:14;5.78;;;3.20;;
45388;SDS011;31127;52.078;4.370;2023-09-18T10:20:12;6.88;;;3.30;;
45388;SDS011;31127;52.078;4.370;2023-09-18T10:25:33;4.65;;;3.42;;
45388;SDS011;31127;52.078;4.370;2023-09-18T10:30:30;5.57;;;3.03;;
45388;SDS011;31127;52.078;4.370;2023-09-18T10:35:27;4.70;;;2.75;;
45388;SDS011;31127;52.078;4.370;2023-09-18T10:40:23;8.27;;;2.92;;
45388;SDS011;31127;52.078;4.370;2023-09-18T10:45:42;3.15;;;2.45;;
45388;SDS011;31127;52.078;4.370;2023-09-18T10:50:39;4.68;;;2.47;;
45388;SDS011;31127;52.078;4.370;2023-09-18T10:55:36;5.38;;;3.03;;
45388;SDS011;31127;52.078;4.370;2023-09-18T11:00:33;5.03;;;2.47;;
45388;SDS011;31127;52.078;4.370;2023-09-18T11:05:35;4.97;;;2.70;;
45388;SDS011;31127;52.078;4.370;2023-09-18T11:10:30;6.05;;;2.90;;
45388;SDS011;31127;52.078;4.370;2023-09-18T11:15:31;4.47;;;2.63;;
45388;SDS011;31127;52.078;4.370;2023-09-18T11:20:26;5.47;;;2.80;;
45388;SDS011;31127;52.078;4.370;2023-09-18T11:25:41;6.25;;;2.20;;
45388;SDS011;31127;52.078;4.370;2023-09-18T11:30:37;5.68;;;2.17;;
45388;SDS011;31127;52.078;4.370;2023-09-18T11:35:35;6.55;;;2.58;;
45388;SDS011;31127;52.078;4.370;2023-09-18T11:40:31;4.60;;;2.28;;
45388;SDS011;31127;52.078;4.370;2023-09-18T11:45:48;5.20;;;2.35;;
45388;SDS011;31127;52.078;4.370;2023-09-18T11:50:45;4.88;;;2.08;;
45388;SDS011;31127;52.078;4.370;2023-09-18T11:56:02;5.53;;;2.65;;
45388;SDS011;31127;52.078;4.370;2023-09-18T12:01:11;7.60;;;2.93;;
45388;SDS011;31127;52.078;4.370;2023-09-18T12:06:08;5.03;;;2.47;;
45388;SDS011;31127;52.078;4.370;2023-09-18T12:11:24;4.32;;;2.25;;
45388;SDS011;31127;52.078;4.370;2023-09-18T12:16:20;3.78;;;2.58;;
45388;SDS011;31127;52.078;4.370;2023-09-18T12:21:16;7.75;;;2.63;;
45388;SDS011;31127;52.078;4.370;2023-09-18T12:26:13;8.75;;;2.70;;
45388;SDS011;31127;52.078;4.370;2023-09-18T12:31:10;4.85;;;2.78;;
45388;SDS011;31127;52.078;4.370;2023-09-18T12:36:06;6.47;;;2.50;;
45388;SDS011;31127;52.078;4.370;2023-09-18T12:41:02;3.80;;;3.17;;
45388;SDS011;31127;52.078;4.370;2023-09-18T12:46:01;9.85;;;3.50;;
45388;SDS011;31127;52.078;4.370;2023-09-18T12:51:02;3.90;;;3.10;;
45388;SDS011;31127;52.078;4.370;2023-09-18T12:56:08;6.43;;;3.30;;
45388;SDS011;31127;52.078;4.370;2023-09-18T13:01:22;5.80;;;3.17;;
45388;SDS011;31127;52.078;4.370;2023-09-18T13:06:18;3.20;;;2.53;;
45388;SDS011;31127;52.078;4.370;2023-09-18T13:11:14;2.50;;;2.30;;
45388;SDS011;31127;52.078;4.370;2023-09-18T13:16:11;5.80;;;3.03;;
45388;SDS011;31127;52.078;4.370;2023-09-18T13:21:11;6.63;;;2.70;;
45388;SDS011;31127;52.078;4.370;2023-09-18T13:26:07;3.72;;;2.83;;
45388;SDS011;31127;52.078;4.370;2023-09-18T13:31:03;5.57;;;2.78;;
45388;SDS011;31127;52.078;4.370;2023-09-18T13:36:00;8.52;;;3.10;;
45388;SDS011;31127;52.078;4.370;2023-09-18T13:40:56;7.13;;;2.47;;
45388;SDS011;31127;52.078;4.370;2023-09-18T13:45:51;7.47;;;3.38;;
45388;SDS011;31127;52.078;4.370;2023-09-18T13:50:46;5.60;;;3.10;;
45388;SDS011;31127;52.078;4.370;2023-09-18T13:56:05;8.00;;;2.60;;
45388;SDS011;31127;52.078;4.370;2023-09-18T14:01:04;6.28;;;2.70;;
45388;SDS011;31127;52.078;4.370;2023-09-18T14:06:09;7.10;;;3.00;;
45388;SDS011;31127;52.078;4.370;2023-09-18T14:11:05;10.07;;;3.63;;
45388;SDS011;31127;52.078;4.370;2023-09-18T14:16:01;8.35;;;4.85;;
45388;SDS011;31127;52.078;4.370;2023-09-18T14:20:58;5.47;;;2.70;;
45388;SDS011;31127;52.078;4.370;2023-09-18T14:26:11;5.32;;;2.33;;
45388;SDS011;31127;52.078;4.370;2023-09-18T14:31:07;8.25;;;2.50;;
45388;SDS011;31127;52.078;4.370;2023-09-18T14:36:03;6.15;;;2.40;;
45388;SDS011;31127;52.078;4.370;2023-09-18T14:40:59;6.85;;;2.38;;
45388;SDS011;31127;52.078;4.370;2023-09-18T14:46:14;7.30;;;2.20;;
45388;SDS011;31127;52.078;4.370;2023-09-18T14:51:10;7.13;;;1.85;;
45388;SDS011;31127;52.078;4.370;2023-09-18T14:56:07;4.32;;;1.90;;
45388;SDS011;31127;52.078;4.370;2023-09-18T15:01:09;7.78;;;4.43;;
45388;SDS011;31127;52.078;4.370;2023-09-18T15:06:05;4.15;;;1.80;;
45388;SDS011;31127;52.078;4.370;2023-09-18T15:11:02;4.45;;;2.40;;
45388;SDS011;31127;52.078;4.370;2023-09-18T15:15:59;7.22;;;2.25;;
45388;SDS011;31127;52.078;4.370;2023-09-18T15:20:54;4.85;;;2.05;;
45388;SDS011;31127;52.078;4.370;2023-09-18T15:25:50;7.88;;;2.08;;
45388;SDS011;31127;52.078;4.370;2023-09-18T15:30:49;14.50;;;3.08;;
45388;SDS011;31127;52.078;4.370;2023-09-18T15:35:46;7.47;;;2.33;;
45388;SDS011;31127;52.078;4.370;2023-09-18T15:40:41;7.78;;;2.35;;
45388;SDS011;31127;52.078;4.370;2023-09-18T15:45:37;10.07;;;3.60;;
45388;SDS011;31127;52.078;4.370;2023-09-18T15:50:32;6.05;;;2.47;;
45388;SDS011;31127;52.078;4.370;2023-09-18T15:55:48;8.10;;;2.72;;
45388;SDS011;31127;52.078;4.370;2023-09-18T16:00:44;7.22;;;2.92;;
45388;SDS011;31127;52.078;4.370;2023-09-18T16:05:40;8.45;;;3.35;;
45388;SDS011;31127;52.078;4.370;2023-09-18T16:10:55;8.60;;;2.92;;
45388;SDS011;31127;52.078;4.370;2023-09-18T16:15:51;13.38;;;3.30;;
45388;SDS011;31127;52.078;4.370;2023-09-18T16:20:47;10.48;;;3.15;;
45388;SDS011;31127;52.078;4.370;2023-09-18T16:25:55;17.00;;;3.90;;
45388;SDS011;31127;52.078;4.370;2023-09-18T16:30:52;18.15;;;3.22;;
45388;SDS011;31127;52.078;4.370;2023-09-18T16:35:47;19.90;;;4.45;;
45388;SDS011;31127;52.078;4.370;2023-09-18T16:41:03;20.00;;;3.95;;
45388;SDS011;31127;52.078;4.370;2023-09-18T16:45:59;21.38;;;5.03;;
45388;SDS011;31127;52.078;4.370;2023-09-18T16:51:14;27.63;;;4.70;;
45388;SDS011;31127;52.078;4.370;2023-09-18T16:56:30;22.92;;;5.63;;
45388;SDS011;31127;52.078;4.370;2023-09-18T17:01:25;27.87;;;4.90;;
45388;SDS011;31127;52.078;4.370;2023-09-18T17:06:21;28.48;;;10.48;;
45388;SDS011;31127;52.078;4.370;2023-09-18T17:11:16;20.80;;;6.38;;
45388;SDS011;31127;52.078;4.370;2023-09-18T17:16:12;25.27;;;5.47;;
45388;SDS011;31127;52.078;4.370;2023-09-18T17:21:08;25.08;;;5.07;;
45388;SDS011;31127;52.078;4.370;2023-09-18T17:26:04;26.80;;;5.40;;
45388;SDS011;31127;52.078;4.370;2023-09-18T17:30:59;29.77;;;6.05;;
45388;SDS011;31127;52.078;4.370;2023-09-18T17:35:55;23.35;;;5.30;;
45388;SDS011;31127;52.078;4.370;2023-09-18T17:40:51;24.58;;;5.63;;
45388;SDS011;31127;52.078;4.370;2023-09-18T17:45:46;23.08;;;5.68;;
45388;SDS011;31127;52.078;4.370;2023-09-18T17:50:42;25.02;;;5.40;;
45388;SDS011;31127;52.078;4.370;2023-09-18T17:55:38;26.08;;;5.50;;
45388;SDS011;31127;52.078;4.370;2023-09-18T18:00:33;20.58;;;4.95;;
45388;SDS011;31127;52.078;4.370;2023-09-18T18:05:29;23.00;;;5.63;;
45388;SDS011;31127;52.078;4.370;2023-09-18T18:10:45;24.05;;;5.40;;
45388;SDS011;31127;52.078;4.370;2023-09-18T18:15:41;26.73;;;5.35;;
45388;SDS011;31127;52.078;4.370;2023-09-18T18:20:38;25.08;;;4.72;;
45388;SDS011;31127;52.078;4.370;2023-09-18T18:25:40;17.50;;;4.93;;
45388;SDS011;31127;52.078;4.370;2023-09-18T18:30:35;24.83;;;8.15;;
45388;SDS011;31127;52.078;4.370;2023-09-18T18:35:31;16.88;;;4.43;;
45388;SDS011;31127;52.078;4.370;2023-09-18T18:40:26;18.40;;;4.57;;
45388;SDS011;31127;52.078;4.370;2023-09-18T18:45:22;14.80;;;3.65;;
45388;SDS011;31127;52.078;4.370;2023-09-18T18:50:18;24.55;;;4.93;;
45388;SDS011;31127;52.078;4.370;2023-09-18T18:55:13;16.20;;;3.67;;
45388;SDS011;31127;52.078;4.370;2023-09-18T19:00:09;20.48;;;3.83;;
45388;SDS011;31127;52.078;4.370;2023-09-18T19:05:06;12.98;;;3.40;;
45388;SDS011;31127;52.078;4.370;2023-09-18T19:10:07;10.98;;;3.05;;
45388;SDS011;31127;52.078;4.370;2023-09-18T19:15:23;10.40;;;2.55;;
45388;SDS011;31127;52.078;4.370;2023-09-18T19:20:20;10.68;;;2.38;;
45388;SDS011;31127;52.078;4.370;2023-09-18T19:25:17;13.93;;;2.70;;
45388;SDS011;31127;52.078;4.370;2023-09-18T19:30:33;12.25;;;2.38;;
45388;SDS011;31127;52.078;4.370;2023-09-18T19:35:48;8.52;;;2.50;;
45388;SDS011;31127;52.078;4.370;2023-09-18T19:40:49;9.70;;;2.85;;
45388;SDS011;31127;52.078;4.370;2023-09-18T19:46:05;10.13;;;2.42;;
45388;SDS011;31127;52.078;4.370;2023-09-18T19:51:09;12.00;;;3.67;;
45388;SDS011;31127;52.078;4.370;2023-09-18T19:56:05;11.27;;;2.25;;
45388;SDS011;31127;52.078;4.370;2023-09-18T20:01:00;9.18;;;2.95;;
45388;SDS011;31127;52.078;4.370;2023-09-18T20:05:56;8.77;;;2.33;;
45388;SDS011;31127;52.078;4.370;2023-09-18T20:10:52;15.45;;;2.38;;
45388;SDS011;31127;52.078;4.370;2023-09-18T20:15:48;7.75;;;2.85;;
45388;SDS011;31127;52.078;4.370;2023-09-18T20:20:43;9.93;;;2.10;;
45388;SDS011;31127;52.078;4.370;2023-09-18T20:25:39;8.15;;;1.90;;
45388;SDS011;31127;52.078;4.370;2023-09-18T20:30:34;6.80;;;2.45;;
45388;SDS011;31127;52.078;4.370;2023-09-18T20:35:31;17.98;;;2.97;;
45388;SDS011;31127;52.078;4.370;2023-09-18T20:40:46;13.25;;;2.42;;
45388;SDS011;31127;52.078;4.370;2023-09-18T20:45:42;20.77;;;3.72;;
45388;SDS011;31127;52.078;4.370;2023-09-18T20:50:38;23.13;;;3.63;;
45388;SDS011;31127;52.078;4.370;2023-09-18T20:55:34;14.40;;;3.53;;
45388;SDS011;31127;52.078;4.370;2023-09-18T21:00:29;17.03;;;3.40;;
45388;SDS011;31127;52.078;4.370;2023-09-18T21:05:25;9.60;;;2.15;;
45388;SDS011;31127;52.078;4.370;2023-09-18T21:10:22;8.27;;;1.88;;
45388;SDS011;31127;52.078;4.370;2023-09-18T21:15:38;14.75;;;2.30;;
45388;SDS011;31127;52.078;4.370;2023-09-18T21:20:34;8.30;;;2.30;;
45388;SDS011;31127;52.078;4.370;2023-09-18T21:25:30;11.20;;;2.70;;
45388;SDS011;31127;52.078;4.370;2023-09-18T21:30:27;13.85;;;2.13;;
45388;SDS011;31127;52.078;4.370;2023-09-18T21:35:43;13.77;;;3.30;;
45388;SDS011;31127;52.078;4.370;2023-09-18T21:40:38;8.88;;;2.15;;
45388;SDS011;31127;52.078;4.370;2023-09-18T21:45:54;12.15;;;2.25;;
45388;SDS011;31127;52.078;4.370;2023-09-18T21:50:50;9.38;;;2.38;;
45388;SDS011;31127;52.078;4.370;2023-09-18T21:55:46;11.45;;;2.70;;
45388;SDS011;31127;52.078;4.370;2023-09-18T22:01:02;7.82;;;1.85;;
45388;SDS011;31127;52.078;4.370;2023-09-18T22:06:02;9.52;;;2.20;;
45388;SDS011;31127;52.078;4.370;2023-09-18T22:10:57;9.10;;;1.92;;
45388;SDS011;31127;52.078;4.370;2023-09-18T22:15:53;8.15;;;1.85;;
45388;SDS011;31127;52.078;4.370;2023-09-18T22:20:49;7.45;;;2.10;;
45388;SDS011;31127;52.078;4.370;2023-09-18T22:25:46;6.80;;;2.10;;
45388;SDS011;31127;52.078;4.370;2023-09-18T22:30:41;6.43;;;2.05;;
45388;SDS011;31127;52.078;4.370;2023-09-18T22:35:57;10.15;;;1.38;;
45388;SDS011;31127;52.078;4.370;2023-09-18T22:56:34;10.63;;;2.28;;
45388;SDS011;31127;52.078;4.370;2023-09-18T23:01:30;6.38;;;2.25;;
45388;SDS011;31127;52.078;4.370;2023-09-18T23:06:27;13.85;;;2.72;;
45388;SDS011;31127;52.078;4.370;2023-09-18T23:11:42;11.32;;;2.20;;
45388;SDS011;31127;52.078;4.370;2023-09-18T23:16:38;6.00;;;1.83;;
45388;SDS011;31127;52.078;4.370;2023-09-18T23:21:36;9.07;;;2.58;;
45388;SDS011;31127;52.078;4.370;2023-09-18T23:26:33;7.95;;;2.05;;
45388;SDS011;31127;52.078;4.370;2023-09-18T23:31:28;7.43;;;3.42;;
45388;SDS011;31127;52.078;4.370;2023-09-18T23:36:25;8.05;;;2.42;;
45388;SDS011;31127;52.078;4.370;2023-09-18T23:41:22;9.95;;;2.72;;
45388;SDS011;31127;52.078;4.370;2023-09-18T23:46:38;11.80;;;2.63;;
45388;SDS011;31127;52.078;4.370;2023-09-18T23:51:34;12.35;;;2.92;;
45388;SDS011;31127;52.078;4.370;2023-09-18T23:56:49;8.15;;;2.28;;
